Terminal Aerodrome Forecast
Issued by NWS Green Bay, WI

Home | Current Version | Previous Version | Text Only | Print | Product List | Glossary Off
Versions: 1 2 3 4 5 6 7 8 9 10 11 12 13 14 15 16 17 18

000
FTUS43 KGRB 161127
TAFGRB
TAF
KGRB 161127Z 1612/1712 33012G18KT 6SM -SN SCT012 OVC020
      TEMPO 1612/1615 3/4SM -SHSN BKN012
     FM161500 32015G22KT P6SM -SHSN OVC015
     FM162100 32013G20KT P6SM -SHSN OVC023
     FM162300 31012G20KT P6SM -SHSN OVC035
     FM170100 31011KT P6SM -SHSN OVC035
     FM170800 30010KT P6SM BKN030=

USA.gov is the U.S. government's official web portal to all federal, state and local government web resources and services.